Time;durP1;ratioP1;P1;durP2;ratioP2;P2;SDS_P1;SDS_P2;PMS_P1;PMS_P2;Temp;Humidity;BMP_temperature;BMP_pressure;BME280_temperature;BME280_humidity;BME280_pressure;Samples;Min_cycle;Max_cycle;Signal;HPM_P1;HPM_P2
2021/10/12 08:48:31;;;;;;;;;14.25;13.00;;;;;12.31;66.02;102219.34;6114891;22;45430;-81
2021/10/12 08:51:05;;;;;;;;;17.75;15.00;;;;;12.36;65.74;102204.47;6097015;23;45544;-82
2021/10/12 08:57:28;;;;;;;;;17.50;16.00;;;;;12.67;65.72;102229.50;6035211;23;45468;-87
2021/10/12 10:05:06;;;;;;;;;;;;;;;;;;;;;
2021/10/12 10:07:46;;;;;;;;;21.50;17.50;;;;;15.19;61.69;102176.31;6194154;22;72917;-83
2021/10/12 10:10:49;;;;;;;;;;;;;;;;;;;;;
2021/10/12 10:13:10;;;;;;;;;16.25;15.50;;;;;15.51;61.00;102174.56;6210933;22;45668;-83
2021/10/12 10:15:36;;;;;;;;;21.50;19.00;;;;;15.63;60.98;102178.03;6187327;22;47337;-83
2021/10/12 10:18:04;;;;;;;;;18.00;16.50;;;;;15.75;60.40;102169.22;6184384;22;45820;-83
2021/10/12 10:20:53;;;;;;;;;21.50;16.00;;;;;15.72;60.29;102140.03;6214690;22;45426;-82
2021/10/12 10:30:50;;;;;;;;;17.50;16.75;;;;;16.17;59.91;102161.09;6215395;22;45402;-85
2021/10/12 10:43:49;;;;;;;;;29.50;21.75;;;;;16.71;58.98;102129.81;6215093;22;45285;-86
2021/10/12 10:47:25;;;;;;;;;19.25;18.75;;;;;16.83;58.29;102120.91;6214809;22;45225;-83
2021/10/12 10:50:13;;;;;;;;;15.50;13.25;;;;;17.08;57.70;102127.81;6075304;23;45358;-84
2021/10/12 10:52:47;;;;;;;;;9.50;9.50;;;;;17.12;57.25;102107.34;6192951;22;48052;-83
2021/10/12 10:55:26;;;;;;;;;13.75;12.75;;;;;17.31;56.88;102122.25;6219406;22;45357;-83
2021/10/12 10:58:05;;;;;;;;;15.00;12.25;;;;;17.48;56.58;102116.78;6217206;22;45186;-84
2021/10/12 11:00:38;;;;;;;;;8.00;8.00;;;;;17.68;56.04;102107.69;6222042;22;45339;-83
2021/10/12 11:03:04;;;;;;;;;13.00;10.50;;;;;17.80;55.51;102110.22;6218233;22;45443;-83
2021/10/12 11:06:01;;;;;;;;;6.33;5.33;;;;;17.95;54.90;102106.50;6189504;22;45356;-84
2021/10/12 11:08:28;;;;;;;;;9.33;8.00;;;;;18.01;54.55;102112.63;6163959;22;45512;-86
2021/10/12 11:11:02;;;;;;;;;8.33;8.00;;;;;18.12;54.61;102091.16;6216030;22;45407;-83
2021/10/12 11:13:32;;;;;;;;;7.00;6.00;;;;;18.41;54.29;102111.22;6188614;22;46500;-83
2021/10/12 11:20:20;;;;;;;;;6.33;6.33;;;;;18.46;53.00;102098.69;6215659;22;45423;-83
2021/10/12 11:26:11;;;;;;;;;9.33;6.67;;;;;18.51;51.56;102083.50;6177393;22;45441;-83
2021/10/12 11:29:07;;;;;;;;;6.67;5.00;;;;;18.47;51.11;102085.34;6188999;22;45263;-83
2021/10/12 11:32:21;;;;;;;;;;;;;;;;;;;;;
2021/10/12 11:35:06;;;;;;;;;;;;;;;;;;;;;
2021/10/12 11:38:08;;;;;;;;;;;;;;;;;;;;;
2021/10/12 11:41:20;;;;;;;;;9.33;9.00;;;;;18.64;50.91;102089.53;6216440;22;71505;-86
2021/10/12 11:44:51;;;;;;;;;;;;;;;;;;;;;
2021/10/12 11:48:03;;;;;;;;;;;;;;;;;;;;;
2021/10/12 11:50:45;;;;;;;;;4.67;4.00;;;;;18.57;50.43;102055.84;5850290;23;74406;-83
2021/10/12 12:04:01;;;;;;;;;3.67;3.67;;;;;19.03;48.64;102031.09;5972123;23;45429;-83
2021/10/12 12:10:44;;;;;;;;;;;;;;;;;;;;;
2021/10/12 13:04:19;;;;;;;;;4.00;3.00;;;;;20.70;43.72;101979.34;6237815;22;45283;-83
2021/10/12 13:10:19;;;;;;;;;4.00;3.67;;;;;20.37;43.83;101976.59;6245430;22;45463;-86
2021/10/12 13:12:47;;;;;;;;;1.00;1.00;;;;;20.22;43.82;101960.91;6219055;22;45494;-84
2021/10/12 13:15:24;;;;;;;;;3.33;3.33;;;;;20.09;43.81;101964.78;6218909;22;45353;-85
2021/10/12 13:17:49;;;;;;;;;3.00;2.00;;;;;19.92;43.87;101963.41;6219771;22;45569;-85
2021/10/12 13:20:21;;;;;;;;;3.33;3.33;;;;;19.80;43.94;101953.84;6219258;22;47110;-86
2021/10/12 13:22:46;;;;;;;;;2.33;2.33;;;;;19.75;43.97;101952.19;6220123;22;45312;-89
2021/10/12 13:25:13;;;;;;;;;3.33;2.33;;;;;19.91;44.36;101952.72;6220713;22;45328;-89
2021/10/12 13:27:39;;;;;;;;;4.33;4.00;;;;;20.30;44.10;101952.69;6219338;22;45379;-85
2021/10/12 13:30:13;;;;;;;;;3.00;3.00;;;;;20.40;43.48;101936.38;6246941;22;45520;-85
2021/10/12 13:32:42;;;;;;;;;4.33;4.33;;;;;20.41;43.54;101946.16;6219367;22;45301;-88
2021/10/12 13:35:14;;;;;;;;;5.00;4.33;;;;;20.48;43.61;101952.25;6219444;22;45335;-81
2021/10/12 13:37:40;;;;;;;;;3.33;3.00;;;;;20.61;43.37;101942.09;6219224;22;45723;-84
2021/10/12 13:40:18;;;;;;;;;3.67;2.33;;;;;20.88;43.04;101945.88;6218506;22;48475;-85
2021/10/12 13:42:44;;;;;;;;;2.00;1.33;;;;;20.82;42.61;101932.63;6218372;22;45726;-83
2021/10/12 13:45:14;;;;;;;;;3.33;3.33;;;;;20.67;42.89;101941.97;6246010;22;45578;-82
2021/10/12 13:47:42;;;;;;;;;5.00;4.00;;;;;20.62;43.17;101943.88;6219427;22;45619;-82
2021/10/12 13:50:09;;;;;;;;;2.67;2.67;;;;;20.57;43.20;101952.03;6218783;22;45429;-82
2021/10/12 13:52:35;;;;;;;;;4.00;4.00;;;;;20.50;43.50;101934.31;6218848;22;45336;-82
2021/10/12 13:55:01;;;;;;;;;4.00;4.00;;;;;20.46;43.20;101943.38;6217477;22;45375;-83
2021/10/12 13:57:29;;;;;;;;;4.00;4.00;;;;;20.28;43.98;101937.56;6219583;22;45847;-83
2021/10/12 13:59:56;;;;;;;;;4.67;4.67;;;;;19.99;43.87;101927.59;6246217;22;45393;-82
2021/10/12 14:02:22;;;;;;;;;6.67;6.00;;;;;19.76;43.67;101925.44;6246279;22;45431;-83
2021/10/12 14:04:48;;;;;;;;;5.67;5.33;;;;;19.47;44.19;101920.72;6218821;22;45477;-84
2021/10/12 14:07:13;;;;;;;;;8.00;7.67;;;;;19.29;44.93;101931.81;6219664;22;45682;-85
2021/10/12 14:09:40;;;;;;;;;4.33;4.00;;;;;19.09;44.93;101933.09;6219226;22;47848;-85
2021/10/12 14:12:06;;;;;;;;;4.00;4.00;;;;;18.95;45.35;101943.16;6247811;22;45426;-84
2021/10/12 14:14:31;;;;;;;;;4.00;3.00;;;;;18.79;45.69;101939.91;6219265;22;45566;-84
2021/10/12 14:16:57;;;;;;;;;2.00;2.00;;;;;18.55;46.17;101925.22;6246026;22;45345;-84
2021/10/12 14:19:32;;;;;;;;;7.00;5.00;;;;;18.46;46.26;101934.22;6218863;22;47212;-84
2021/10/12 14:21:57;;;;;;;;;5.33;5.00;;;;;18.32;46.76;101925.59;6219636;22;45225;-84
2021/10/12 14:24:29;;;;;;;;;5.67;5.67;;;;;18.17;47.16;101915.19;6218988;22;45356;-84
2021/10/12 14:27:23;;;;;;;;;4.67;4.33;;;;;18.18;47.45;101925.81;6218244;22;45508;-83
2021/10/12 14:29:58;;;;;;;;;;;;;;;;;;;;;
2021/10/12 14:32:24;;;;;;;;;5.33;5.33;;;;;17.95;47.53;101909.31;6246545;22;72305;-83
2021/10/12 14:34:50;;;;;;;;;4.00;4.00;;;;;17.94;47.98;101919.09;6219000;22;45717;-83
2021/10/12 14:37:15;;;;;;;;;9.00;5.33;;;;;17.82;48.19;101903.28;6217813;22;45515;-83
2021/10/12 14:39:51;;;;;;;;;;;;;;;;;;;;;
2021/10/12 14:42:37;;;;;;;;;;;;;;;;;;;;;
2021/10/12 14:45:04;;;;;;;;;6.00;6.00;;;;;17.75;49.38;101917.56;6245028;22;69177;-84
2021/10/12 14:47:31;;;;;;;;;6.33;5.67;;;;;17.65;49.23;101908.84;6243247;22;45363;-83
2021/10/12 14:49:57;;;;;;;;;5.00;4.00;;;;;17.57;49.04;101900.97;6218344;22;48144;-83
2021/10/12 14:52:23;;;;;;;;;4.00;4.00;;;;;17.59;49.20;101909.81;6246172;22;45360;-84
2021/10/12 14:54:49;;;;;;;;;6.00;5.00;;;;;17.54;49.66;101898.34;6217920;22;45455;-83
2021/10/12 14:57:14;;;;;;;;;6.00;6.00;;;;;17.49;49.42;101896.66;6218245;22;45471;-83
2021/10/12 14:59:40;;;;;;;;;6.00;4.67;;;;;17.45;49.89;101905.56;6246178;22;46034;-83
2021/10/12 15:02:06;;;;;;;;;5.67;4.00;;;;;17.38;49.88;101897.69;6245802;22;45405;-83
2021/10/12 15:04:32;;;;;;;;;8.67;5.00;;;;;17.37;50.10;101895.03;6245892;22;45270;-83
2021/10/12 15:06:57;;;;;;;;;6.67;5.33;;;;;17.33;50.12;101902.19;6216538;22;45630;-83
2021/10/12 15:09:29;;;;;;;;;6.00;5.00;;;;;17.28;50.19;101889.84;6216706;22;46874;-83
2021/10/12 15:11:57;;;;;;;;;7.00;5.33;;;;;17.25;50.31;101882.78;6246467;22;45447;-83
2021/10/12 15:14:25;;;;;;;;;9.33;9.33;;;;;17.30;50.71;101902.22;6245396;22;45055;-83
2021/10/12 15:16:54;;;;;;;;;7.33;7.33;;;;;17.19;50.74;101890.84;6217074;22;45523;-83
2021/10/12 15:19:27;;;;;;;;;12.33;8.67;;;;;17.18;50.53;101889.06;6218849;22;47017;-83
2021/10/12 15:21:58;;;;;;;;;8.67;8.67;;;;;17.29;51.13;101903.09;6245284;22;45366;-83
2021/10/12 15:24:24;;;;;;;;;7.33;6.67;;;;;17.25;51.29;101884.56;6216043;22;45238;-83
2021/10/12 15:26:52;;;;;;;;;11.67;8.00;;;;;17.32;51.25;101888.88;6244880;22;45264;-82
2021/10/12 15:29:49;;;;;;;;;9.67;8.00;;;;;18.15;51.30;101898.31;6245637;22;45553;-90
2021/10/12 15:32:25;;;;;;;;;;;;;;;;;;;;;
2021/10/12 15:35:42;;;;;;;;;;;;;;;;;;;;;
2021/10/12 15:38:07;;;;;;;;;7.33;6.00;;;;;21.02;45.69;101886.56;6244501;22;71237;-86
2021/10/12 16:22:09;;;;;;;;;7.67;7.00;;;;;17.86;50.13;101899.69;5949810;23;45422;-81
2021/10/12 16:28:05;;;;;;;;;4.67;3.67;;;;;17.65;50.68;101911.50;5952791;23;46260;-81
2021/10/12 16:34:08;;;;;;;;;;;;;;;;;;;;;
2021/10/12 16:36:45;;;;;;;;;7.67;7.00;;;;;17.33;51.22;101898.63;6087639;23;68642;-80
2021/10/12 16:39:13;;;;;;;;;6.33;5.00;;;;;17.33;51.06;101914.63;6068850;22;45370;-79
2021/10/12 16:41:42;;;;;;;;;4.00;4.00;;;;;17.26;51.44;101910.25;6211005;22;46393;-80
2021/10/12 16:44:38;;;;;;;;;;;;;;;;;;;;;
2021/10/12 16:48:12;;;;;;;;;;;;;;;;;;;;;
2021/10/12 16:50:54;;;;;;;;;;;;;;;;;;;;;
2021/10/12 16:53:27;;;;;;;;;8.25;8.25;;;;;16.92;51.57;101924.84;6059367;23;74658;-80
2021/10/12 16:56:00;;;;;;;;;8.33;8.33;;;;;16.84;51.84;101928.47;6065266;22;45480;-80
2021/10/12 16:58:28;;;;;;;;;8.00;8.00;;;;;16.73;51.85;101917.91;6185566;22;45782;-80
2021/10/12 17:00:56;;;;;;;;;6.00;4.00;;;;;16.69;52.15;101933.03;6185011;22;45542;-80
2021/10/12 17:03:27;;;;;;;;;7.00;7.00;;;;;16.58;52.38;101924.28;6160729;22;46430;-80
2021/10/12 17:05:53;;;;;;;;;7.67;7.67;;;;;16.48;52.39;101920.81;6184178;22;45474;-80
2021/10/12 17:09:12;;;;;;;;;9.25;9.25;;;;;16.46;52.70;101932.38;6185302;22;45411;-82
2021/10/12 17:11:54;;;;;;;;;;;;;;;;;;;;;
2021/10/12 17:14:48;;;;;;;;;6.67;5.67;;;;;16.39;52.80;101944.84;6212726;22;75311;-81
2021/10/12 17:17:50;;;;;;;;;8.33;7.33;;;;;16.37;53.41;101951.06;6185035;22;45303;-81
2021/10/12 17:23:54;;;;;;;;;5.00;5.00;;;;;16.24;53.51;101955.59;6014286;23;45226;-79
2021/10/12 17:27:09;;;;;;;;;;;;;;;;;;;;;
2021/10/12 17:30:14;;;;;;;;;15.25;13.75;;;;;16.02;53.94;101950.44;6184732;22;72738;-82
2021/10/12 17:32:55;;;;;;;;;11.25;8.50;;;;;15.96;53.89;101954.88;6070362;22;45434;-80
2021/10/12 17:35:47;;;;;;;;;11.50;8.50;;;;;15.88;53.73;101961.16;6181400;22;45385;-81
2021/10/12 17:39:16;;;;;;;;;10.25;8.00;;;;;15.83;53.75;101962.06;6207110;22;46279;-81
2021/10/12 17:59:52;;;;;;;;;;;;;;;;;;;;;
2021/10/12 18:06:19;;;;;;;;;;;;;;;;;;;;;
2021/10/12 18:09:18;;;;;;;;;;;;;;;;;;;;;
2021/10/12 18:11:50;;;;;;;;;8.25;8.00;;;;;15.63;55.11;101978.94;6153960;22;70400;-79
2021/10/12 18:15:14;;;;;;;;;8.25;8.00;;;;;15.53;54.92;101963.06;6212535;22;45395;-81
2021/10/12 19:41:35;;;;;;;;;;;;;;;;;;;;;
2021/10/12 19:45:06;;;;;;;;;;;;;;;;;;;;;
2021/10/12 19:51:55;;;;;;;;;;;;;;;;;;;;;
2021/10/12 20:13:13;;;;;;;;;;;;;;;;;;;;;
2021/10/12 20:15:53;;;;;;;;;7.50;7.00;;;;;14.92;59.96;102027.81;5841007;24;75016;-80
2021/10/12 20:24:56;;;;;;;;;;;;;;;;;;;;;
2021/10/12 20:27:45;;;;;;;;;7.75;7.75;;;;;14.86;59.98;102014.53;6055075;23;74880;-80
2021/10/12 20:30:21;;;;;;;;;;;;;;;;;;;;;
2021/10/12 20:32:57;;;;;;;;;7.00;6.75;;;;;14.90;60.26;102030.44;6060265;23;67095;-79
2021/10/12 20:35:29;;;;;;;;;8.25;7.50;;;;;14.84;60.41;102033.13;6135990;23;45517;-79
2021/10/12 20:38:27;;;;;;;;;;;;;;;;;;;;;
2021/10/12 20:41:08;;;;;;;;;;;;;;;;;;;;;
2021/10/12 20:43:58;;;;;;;;;;;;;;;;;;;;;
2021/10/12 20:46:41;;;;;;;;;;;;;;;;;;;;;
2021/10/12 20:49:45;;;;;;;;;;;;;;;;;;;;;
2021/10/12 20:53:06;;;;;;;;;;;;;;;;;;;;;
2021/10/12 20:56:03;;;;;;;;;;;;;;;;;;;;;
2021/10/12 21:04:56;;;;;;;;;12.00;9.50;;;;;14.81;60.89;102034.88;6000113;23;45743;-81
2021/10/12 21:08:47;;;;;;;;;8.25;8.00;;;;;14.91;60.87;102052.53;6034738;23;45676;-82
2021/10/12 21:14:10;;;;;;;;;12.75;12.50;;;;;14.87;61.48;102062.28;6069260;23;45613;-78
2021/10/12 21:16:36;;;;;;;;;14.75;12.50;;;;;14.80;61.13;102047.25;6154447;23;45479;-79
2021/10/12 21:19:01;;;;;;;;;13.50;12.00;;;;;14.91;61.15;102076.41;6182141;23;45614;-79
2021/10/12 21:21:27;;;;;;;;;13.25;10.75;;;;;14.87;61.51;102064.94;6182354;23;45502;-79
2021/10/12 21:23:55;;;;;;;;;12.75;12.50;;;;;14.89;61.26;102071.13;6181506;23;46061;-79
2021/10/12 21:26:20;;;;;;;;;13.25;10.75;;;;;14.84;61.56;102054.31;6180704;23;45366;-79
2021/10/12 21:28:46;;;;;;;;;17.75;14.75;;;;;14.87;61.69;102062.28;6154455;23;45363;-79
2021/10/12 21:31:11;;;;;;;;;12.25;8.25;;;;;14.80;61.21;102052.53;6153146;23;45687;-79
2021/10/12 21:33:37;;;;;;;;;12.25;10.25;;;;;14.83;61.93;102068.44;6155984;23;46925;-78
2021/10/12 21:36:03;;;;;;;;;11.75;11.50;;;;;14.81;61.81;102072.91;6155193;23;45958;-79
2021/10/12 21:38:30;;;;;;;;;16.00;13.75;;;;;14.74;61.96;102055.22;6156296;23;45434;-79
2021/10/12 21:40:56;;;;;;;;;11.75;11.00;;;;;14.85;62.13;102071.13;6155165;23;45581;-79
2021/10/12 21:43:23;;;;;;;;;15.00;14.25;;;;;14.72;62.03;102041.06;6154777;23;47343;-79
2021/10/12 21:45:49;;;;;;;;;10.50;10.50;;;;;14.76;61.94;102042.84;6181254;23;45382;-79
2021/10/12 21:48:17;;;;;;;;;13.50;10.75;;;;;14.75;61.99;102044.63;6182852;23;45342;-79
2021/10/12 21:50:43;;;;;;;;;7.25;7.25;;;;;14.72;62.25;102035.75;6182265;23;45528;-79
2021/10/12 21:53:09;;;;;;;;;9.75;9.75;;;;;14.76;62.40;102042.84;6182319;23;46073;-79
2021/10/12 21:55:34;;;;;;;;;10.50;7.50;;;;;14.80;62.59;102057.84;6181889;23;45483;-79
2021/10/12 21:58:00;;;;;;;;;9.00;8.00;;;;;14.75;62.31;102057.88;6134830;23;45428;-79
2021/10/12 22:00:32;;;;;;;;;8.00;7.25;;;;;14.76;62.52;102054.31;6126838;23;45411;-79
2021/10/12 22:03:00;;;;;;;;;11.50;10.50;;;;;14.73;62.41;102041.06;6152905;23;45484;-78
2021/10/12 22:05:25;;;;;;;;;9.25;6.25;;;;;14.81;62.40;102067.59;6126439;23;45458;-79
2021/10/12 22:07:51;;;;;;;;;11.00;9.50;;;;;14.75;62.62;102065.81;6125553;23;45517;-79
2021/10/12 22:10:16;;;;;;;;;11.25;10.50;;;;;14.70;62.75;102051.69;6153474;23;45500;-79
2021/10/12 22:12:42;;;;;;;;;8.50;8.00;;;;;14.81;62.84;102058.72;6150863;23;47162;-78
2021/10/12 22:15:08;;;;;;;;;12.00;10.25;;;;;14.74;62.56;102045.47;6126046;23;45368;-79
2021/10/12 22:17:34;;;;;;;;;15.00;13.75;;;;;14.76;62.66;102050.78;6151176;23;45705;-79
2021/10/12 22:19:59;;;;;;;;;14.50;14.00;;;;;14.76;62.64;102062.28;6151121;23;45400;-79
2021/10/12 22:22:25;;;;;;;;;16.75;15.75;;;;;14.76;62.83;102056.09;6125789;23;48226;-81
2021/10/12 22:24:51;;;;;;;;;16.50;14.00;;;;;14.74;62.66;102055.22;6125861;23;45337;-79
2021/10/12 22:27:16;;;;;;;;;16.25;13.25;;;;;14.69;62.50;102055.19;6152671;23;45541;-79
2021/10/12 22:29:42;;;;;;;;;17.25;15.00;;;;;14.66;62.98;102052.56;6125586;23;45496;-78
2021/10/12 22:32:09;;;;;;;;;12.25;12.00;;;;;14.71;62.84;102073.78;6125904;23;46783;-81
2021/10/12 22:34:35;;;;;;;;;12.50;9.00;;;;;14.74;63.00;102092.31;6152826;23;45393;-78
2021/10/12 22:37:00;;;;;;;;;13.75;11.75;;;;;14.71;63.04;102087.91;6126456;23;45759;-78
2021/10/12 22:39:26;;;;;;;;;12.75;11.75;;;;;14.76;63.00;102102.03;6125557;23;45686;-78
2021/10/12 22:41:54;;;;;;;;;10.50;10.00;;;;;14.77;62.81;102101.16;6126259;23;47083;-79
2021/10/12 22:44:20;;;;;;;;;12.50;8.50;;;;;14.69;63.13;102100.25;6126287;23;45322;-79
2021/10/12 22:46:46;;;;;;;;;16.50;12.00;;;;;14.72;63.18;102097.59;6152853;23;45509;-80
2021/10/12 22:49:11;;;;;;;;;11.25;10.50;;;;;14.77;63.20;102101.16;6152675;23;45298;-79
2021/10/12 22:51:37;;;;;;;;;11.75;10.00;;;;;14.66;63.47;102094.09;6153154;23;46540;-79
2021/10/12 22:54:03;;;;;;;;;7.00;6.75;;;;;14.65;63.57;102098.50;6131201;23;46643;-80
2021/10/12 22:56:28;;;;;;;;;11.25;9.50;;;;;14.65;63.55;102100.25;6152642;23;45614;-81
2021/10/12 22:58:54;;;;;;;;;9.75;8.00;;;;;14.62;63.39;102105.56;6152289;23;45638;-80
2021/10/12 23:01:20;;;;;;;;;8.50;8.50;;;;;14.61;63.92;102109.09;6175750;23;46738;-80
2021/10/12 23:03:46;;;;;;;;;8.50;8.00;;;;;14.56;63.95;102102.00;6152349;23;45435;-80
2021/10/12 23:06:11;;;;;;;;;12.75;10.00;;;;;14.55;64.04;102100.25;6153640;23;45771;-80
2021/10/12 23:08:40;;;;;;;;;6.50;6.25;;;;;14.60;64.20;102107.34;6176233;23;45421;-80
2021/10/12 23:11:06;;;;;;;;;12.50;11.75;;;;;14.55;63.91;102107.31;6151100;23;47706;-81
2021/10/12 23:13:31;;;;;;;;;12.75;10.00;;;;;14.51;63.76;102105.50;6153177;23;45380;-81
2021/10/12 23:15:57;;;;;;;;;12.75;12.75;;;;;14.47;63.86;102095.78;6153433;23;45335;-80
2021/10/12 23:18:22;;;;;;;;;13.75;10.75;;;;;14.52;63.93;102105.56;6152775;23;45794;-80
2021/10/12 23:20:48;;;;;;;;;13.00;12.00;;;;;14.47;63.61;102093.13;6172609;23;46366;-79
2021/10/12 23:23:14;;;;;;;;;10.00;9.75;;;;;14.48;63.88;102095.78;6150577;23;45547;-79
2021/10/12 23:25:39;;;;;;;;;10.50;10.00;;;;;14.45;63.90;102094.91;6150052;23;45455;-79
2021/10/12 23:28:06;;;;;;;;;10.50;8.75;;;;;14.39;63.78;102090.47;6150105;23;45618;-79
2021/10/12 23:30:32;;;;;;;;;10.50;10.25;;;;;14.28;63.84;102081.63;6152017;23;46907;-78
